sensor_id;sensor_type;location;lat;lon;timestamp;pressure;altitude;pressure_sealevel;temperature;humidity
31092;BME280;67728;53.122;12.776;2023-05-10T00:00:34;100388.88;;;10.64;59.05
31092;BME280;67728;53.122;12.776;2023-05-10T00:02:05;100386.56;;;10.51;59.44
31092;BME280;67728;53.122;12.776;2023-05-10T00:03:37;100386.50;;;10.54;58.81
31092;BME280;67728;53.122;12.776;2023-05-10T00:05:09;100383.13;;;10.50;59.28
31092;BME280;67728;53.122;12.776;2023-05-10T00:06:40;100378.69;;;10.55;58.88
31092;BME280;67728;53.122;12.776;2023-05-10T00:08:12;100387.50;;;10.48;59.73
31092;BME280;67728;53.122;12.776;2023-05-10T00:09:43;100376.09;;;10.57;59.04
31092;BME280;67728;53.122;12.776;2023-05-10T00:11:14;100384.63;;;10.60;59.01
31092;BME280;67728;53.122;12.776;2023-05-10T00:12:46;100376.31;;;10.45;59.51
31092;BME280;67728;53.122;12.776;2023-05-10T00:14:18;100378.25;;;10.34;60.88
31092;BME280;67728;53.122;12.776;2023-05-10T00:15:50;100378.31;;;10.31;60.05
31092;BME280;67728;53.122;12.776;2023-05-10T00:17:20;100373.97;;;10.33;60.15
31092;BME280;67728;53.122;12.776;2023-05-10T00:18:52;100366.16;;;10.34;60.16
31092;BME280;67728;53.122;12.776;2023-05-10T00:20:25;100368.53;;;10.45;59.82
31092;BME280;67728;53.122;12.776;2023-05-10T00:21:57;100373.84;;;10.39;59.72
31092;BME280;67728;53.122;12.776;2023-05-10T00:23:27;100364.38;;;10.36;60.08
31092;BME280;67728;53.122;12.776;2023-05-10T00:24:59;100366.81;;;10.44;59.57
31092;BME280;67728;53.122;12.776;2023-05-10T00:26:31;100360.09;;;10.35;59.92
31092;BME280;67728;53.122;12.776;2023-05-10T00:28:03;100365.47;;;10.25;60.62
31092;BME280;67728;53.122;12.776;2023-05-10T00:29:34;100352.56;;;10.23;60.64
31092;BME280;67728;53.122;12.776;2023-05-10T00:31:05;100365.69;;;10.15;60.68
31092;BME280;67728;53.122;12.776;2023-05-10T00:32:37;100355.31;;;10.15;61.10
31092;BME280;67728;53.122;12.776;2023-05-10T00:34:09;100351.88;;;10.12;60.86
31092;BME280;67728;53.122;12.776;2023-05-10T00:35:42;100355.47;;;10.05;61.51
31092;BME280;67728;53.122;12.776;2023-05-10T00:37:14;100352.91;;;10.05;61.19
31092;BME280;67728;53.122;12.776;2023-05-10T00:38:45;100353.63;;;10.13;61.00
31092;BME280;67728;53.122;12.776;2023-05-10T00:40:16;100346.69;;;10.12;61.22
31092;BME280;67728;53.122;12.776;2023-05-10T00:41:47;100350.25;;;10.06;61.41
31092;BME280;67728;53.122;12.776;2023-05-10T00:43:19;100346.75;;;10.10;60.77
31092;BME280;67728;53.122;12.776;2023-05-10T00:44:51;100349.31;;;10.13;61.12
31092;BME280;67728;53.122;12.776;2023-05-10T00:46:22;100353.09;;;9.94;61.72
31092;BME280;67728;53.122;12.776;2023-05-10T00:47:53;100346.91;;;10.01;61.09
31092;BME280;67728;53.122;12.776;2023-05-10T00:49:26;100347.72;;;10.05;61.24
31092;BME280;67728;53.122;12.776;2023-05-10T00:50:58;100344.38;;;9.98;61.54
31092;BME280;67728;53.122;12.776;2023-05-10T00:52:30;100338.09;;;10.13;60.78
31092;BME280;67728;53.122;12.776;2023-05-10T00:54:01;100345.81;;;10.14;61.38
31092;BME280;67728;53.122;12.776;2023-05-10T00:55:33;100348.56;;;10.05;61.16
31092;BME280;67728;53.122;12.776;2023-05-10T00:57:05;100338.25;;;10.02;61.40
31092;BME280;67728;53.122;12.776;2023-05-10T00:58:36;100339.25;;;9.95;61.82
31092;BME280;67728;53.122;12.776;2023-05-10T01:00:09;100340.19;;;9.91;61.80
31092;BME280;67728;53.122;12.776;2023-05-10T01:01:41;100347.22;;;9.86;62.35
31092;BME280;67728;53.122;12.776;2023-05-10T01:03:13;100341.19;;;9.84;62.13
31092;BME280;67728;53.122;12.776;2023-05-10T01:04:44;100341.25;;;9.81;62.69
31092;BME280;67728;53.122;12.776;2023-05-10T01:06:17;100340.41;;;9.79;62.46
31092;BME280;67728;53.122;12.776;2023-05-10T01:07:49;100339.53;;;9.80;62.75
31092;BME280;67728;53.122;12.776;2023-05-10T01:09:21;100339.59;;;9.77;62.69
31092;BME280;67728;53.122;12.776;2023-05-10T01:10:52;100342.28;;;9.71;63.20
31092;BME280;67728;53.122;12.776;2023-05-10T01:12:23;100342.03;;;9.85;62.51
31092;BME280;67728;53.122;12.776;2023-05-10T01:13:57;100331.72;;;9.82;62.60
31092;BME280;67728;53.122;12.776;2023-05-10T01:15:28;100335.22;;;9.81;62.34
31092;BME280;67728;53.122;12.776;2023-05-10T01:17:01;100335.22;;;9.79;62.61
31092;BME280;67728;53.122;12.776;2023-05-10T01:18:35;100330.81;;;9.84;62.04
31092;BME280;67728;53.122;12.776;2023-05-10T01:20:09;100330.91;;;9.81;63.07
31092;BME280;67728;53.122;12.776;2023-05-10T01:21:49;100326.53;;;9.83;62.34
31092;BME280;67728;53.122;12.776;2023-05-10T01:23:50;100324.00;;;9.80;62.88
31092;BME280;67728;53.122;12.776;2023-05-10T01:25:50;100327.31;;;9.87;62.25
31092;BME280;67728;53.122;12.776;2023-05-10T01:27:55;100323.94;;;9.83;62.66
31092;BME280;67728;53.122;12.776;2023-05-10T01:33:39;100319.84;;;9.72;62.60
31092;BME280;67728;53.122;12.776;2023-05-10T01:35:17;100317.28;;;9.69;63.40
31092;BME280;67728;53.122;12.776;2023-05-10T01:36:54;100316.44;;;9.70;63.17
31092;BME280;67728;53.122;12.776;2023-05-10T01:38:32;100315.63;;;9.68;63.04
31092;BME280;67728;53.122;12.776;2023-05-10T01:40:15;100315.66;;;9.65;63.47
31092;BME280;67728;53.122;12.776;2023-05-10T01:41:52;100313.03;;;9.68;62.92
31092;BME280;67728;53.122;12.776;2023-05-10T01:43:28;100312.94;;;9.71;63.36
31092;BME280;67728;53.122;12.776;2023-05-10T01:45:07;100316.34;;;9.74;63.11
31092;BME280;67728;53.122;12.776;2023-05-10T01:46:42;100314.81;;;9.64;63.00
31092;BME280;67728;53.122;12.776;2023-05-10T01:48:14;100324.34;;;9.62;63.13
31092;BME280;67728;53.122;12.776;2023-05-10T01:49:50;100317.44;;;9.61;63.20
31092;BME280;67728;53.122;12.776;2023-05-10T01:51:23;100307.03;;;9.62;63.31
31092;BME280;67728;53.122;12.776;2023-05-10T01:52:58;100309.81;;;9.53;63.89
31092;BME280;67728;53.122;12.776;2023-05-10T01:54:32;100310.69;;;9.54;64.12
31092;BME280;67728;53.122;12.776;2023-05-10T01:56:05;100310.69;;;9.52;63.80
31092;BME280;67728;53.122;12.776;2023-05-10T01:57:40;100308.16;;;9.49;64.00
31092;BME280;67728;53.122;12.776;2023-05-10T01:59:17;100309.97;;;9.44;64.48
31092;BME280;67728;53.122;12.776;2023-05-10T02:00:50;100307.41;;;9.43;64.47
31092;BME280;67728;53.122;12.776;2023-05-10T02:02:24;100313.28;;;9.52;63.95
31092;BME280;67728;53.122;12.776;2023-05-10T02:03:57;100307.22;;;9.53;63.74
31092;BME280;67728;53.122;12.776;2023-05-10T02:05:32;100310.78;;;9.48;63.60
31092;BME280;67728;53.122;12.776;2023-05-10T02:07:05;100310.00;;;9.43;64.47
31092;BME280;67728;53.122;12.776;2023-05-10T02:08:36;100308.91;;;9.56;63.38
31092;BME280;67728;53.122;12.776;2023-05-10T02:10:09;100301.22;;;9.51;63.79
31092;BME280;67728;53.122;12.776;2023-05-10T02:11:42;100306.47;;;9.47;64.08
31092;BME280;67728;53.122;12.776;2023-05-10T02:13:16;100297.13;;;9.40;64.60
31092;BME280;67728;53.122;12.776;2023-05-10T02:14:47;100308.34;;;9.39;64.14
31092;BME280;67728;53.122;12.776;2023-05-10T02:16:22;100311.69;;;9.44;63.78
31092;BME280;67728;53.122;12.776;2023-05-10T02:17:56;100309.81;;;9.52;63.66
31092;BME280;67728;53.122;12.776;2023-05-10T02:19:28;100306.53;;;9.44;64.40
31092;BME280;67728;53.122;12.776;2023-05-10T02:21:02;100307.47;;;9.40;64.87
31092;BME280;67728;53.122;12.776;2023-05-10T02:22:35;100304.16;;;9.32;64.73
31092;BME280;67728;53.122;12.776;2023-05-10T02:24:08;100299.75;;;9.37;64.32
31092;BME280;67728;53.122;12.776;2023-05-10T02:25:43;100298.25;;;9.24;64.94
31092;BME280;67728;53.122;12.776;2023-05-10T02:27:16;100295.44;;;9.37;64.23
31092;BME280;67728;53.122;12.776;2023-05-10T02:28:49;100299.75;;;9.37;64.00
31092;BME280;67728;53.122;12.776;2023-05-10T02:30:22;100297.13;;;9.38;64.36
31092;BME280;67728;53.122;12.776;2023-05-10T02:31:55;100300.66;;;9.34;64.52
31092;BME280;67728;53.122;12.776;2023-05-10T02:33:28;100297.25;;;9.31;64.52
31092;BME280;67728;53.122;12.776;2023-05-10T02:35:01;100298.25;;;9.24;64.50
31092;BME280;67728;53.122;12.776;2023-05-10T02:36:35;100297.50;;;9.17;65.13
31092;BME280;67728;53.122;12.776;2023-05-10T02:38:08;100295.75;;;9.18;64.98
31092;BME280;67728;53.122;12.776;2023-05-10T02:39:43;100289.78;;;9.14;65.60
31092;BME280;67728;53.122;12.776;2023-05-10T02:41:16;100294.09;;;9.15;65.30
31092;BME280;67728;53.122;12.776;2023-05-10T02:42:48;100298.47;;;9.10;65.18
31092;BME280;67728;53.122;12.776;2023-05-10T02:44:21;100291.59;;;9.09;65.63
31092;BME280;67728;53.122;12.776;2023-05-10T02:45:54;100291.75;;;8.98;66.24
31092;BME280;67728;53.122;12.776;2023-05-10T02:47:26;100296.19;;;8.90;66.81
31092;BME280;67728;53.122;12.776;2023-05-10T02:48:57;100292.63;;;8.99;65.77
31092;BME280;67728;53.122;12.776;2023-05-10T02:50:30;100292.59;;;9.00;65.79
31092;BME280;67728;53.122;12.776;2023-05-10T02:52:05;100290.84;;;9.01;65.52
31092;BME280;67728;53.122;12.776;2023-05-10T02:53:41;100290.13;;;8.94;66.43
31092;BME280;67728;53.122;12.776;2023-05-10T02:55:16;100293.44;;;9.01;65.42
31092;BME280;67728;53.122;12.776;2023-05-10T02:56:53;100290.84;;;9.01;65.38
31092;BME280;67728;53.122;12.776;2023-05-10T02:58:27;100290.00;;;9.00;65.82
31092;BME280;67728;53.122;12.776;2023-05-10T02:59:58;100284.13;;;8.89;65.97
31092;BME280;67728;53.122;12.776;2023-05-10T03:01:30;100285.84;;;8.92;66.22
31092;BME280;67728;53.122;12.776;2023-05-10T03:03:02;100292.13;;;8.74;66.96
31092;BME280;67728;53.122;12.776;2023-05-10T03:04:32;100299.06;;;8.72;66.95
31092;BME280;67728;53.122;12.776;2023-05-10T03:06:04;100288.69;;;8.74;66.86
31092;BME280;67728;53.122;12.776;2023-05-10T03:07:37;100289.47;;;8.80;66.10
31092;BME280;67728;53.122;12.776;2023-05-10T03:09:09;100287.81;;;8.75;66.55
31092;BME280;67728;53.122;12.776;2023-05-10T03:10:50;100286.97;;;8.76;66.23
31092;BME280;67728;53.122;12.776;2023-05-10T03:12:32;100292.13;;;8.74;66.46
31092;BME280;67728;53.122;12.776;2023-05-10T03:14:10;100287.00;;;8.73;66.48
31092;BME280;67728;53.122;12.776;2023-05-10T03:15:48;100291.31;;;8.72;66.26
31092;BME280;67728;53.122;12.776;2023-05-10T03:17:29;100289.56;;;8.74;66.41
31092;BME280;67728;53.122;12.776;2023-05-10T03:19:06;100282.63;;;8.78;66.68
31092;BME280;67728;53.122;12.776;2023-05-10T03:20:46;100280.88;;;8.78;66.21
31092;BME280;67728;53.122;12.776;2023-05-10T03:22:26;100275.59;;;8.84;66.16
31092;BME280;67728;53.122;12.776;2023-05-10T03:24:05;100278.22;;;8.83;65.92
31092;BME280;67728;53.122;12.776;2023-05-10T03:25:39;100280.97;;;8.72;66.56
31092;BME280;67728;53.122;12.776;2023-05-10T03:27:14;100278.38;;;8.72;66.83
31092;BME280;67728;53.122;12.776;2023-05-10T03:28:47;100279.25;;;8.71;66.89
31092;BME280;67728;53.122;12.776;2023-05-10T03:30:20;100279.34;;;8.65;67.10
31092;BME280;67728;53.122;12.776;2023-05-10T03:31:51;100279.28;;;8.68;66.88
31092;BME280;67728;53.122;12.776;2023-05-10T03:33:22;100281.13;;;8.60;67.37
31092;BME280;67728;53.122;12.776;2023-05-10T03:34:54;100277.59;;;8.67;66.87
31092;BME280;67728;53.122;12.776;2023-05-10T03:36:24;100282.66;;;8.75;66.80
31092;BME280;67728;53.122;12.776;2023-05-10T03:37:56;100275.75;;;8.75;66.82
31092;BME280;67728;53.122;12.776;2023-05-10T03:39:29;100277.31;;;8.85;65.54
31092;BME280;67728;53.122;12.776;2023-05-10T03:41:01;100277.25;;;8.90;65.66
31092;BME280;67728;53.122;12.776;2023-05-10T03:42:32;100269.22;;;9.08;64.91
31092;BME280;67728;53.122;12.776;2023-05-10T03:44:04;100274.44;;;9.03;65.16
31092;BME280;67728;53.122;12.776;2023-05-10T03:45:35;100267.00;;;8.82;66.16
31092;BME280;67728;53.122;12.776;2023-05-10T03:47:07;100277.41;;;8.79;66.39
31092;BME280;67728;53.122;12.776;2023-05-10T03:48:38;100275.94;;;8.63;67.19
31092;BME280;67728;53.122;12.776;2023-05-10T03:50:09;100272.31;;;8.73;66.21
31092;BME280;67728;53.122;12.776;2023-05-10T03:51:40;100269.72;;;8.75;66.49
31092;BME280;67728;53.122;12.776;2023-05-10T03:53:12;100265.28;;;8.81;66.26
31092;BME280;67728;53.122;12.776;2023-05-10T03:54:45;100263.56;;;8.83;65.83
31092;BME280;67728;53.122;12.776;2023-05-10T03:56:15;100266.06;;;8.88;65.99
31092;BME280;67728;53.122;12.776;2023-05-10T03:57:47;100257.41;;;8.90;65.43
31092;BME280;67728;53.122;12.776;2023-05-10T03:59:19;100266.75;;;8.97;65.78
31092;BME280;67728;53.122;12.776;2023-05-10T04:00:50;100265.22;;;8.87;66.50
31092;BME280;67728;53.122;12.776;2023-05-10T04:02:22;100260.94;;;8.85;65.86
31092;BME280;67728;53.122;12.776;2023-05-10T04:03:53;100267.78;;;8.89;65.98
31092;BME280;67728;53.122;12.776;2023-05-10T04:05:24;100259.94;;;8.93;66.21
31092;BME280;67728;53.122;12.776;2023-05-10T04:06:56;100264.94;;;9.06;65.02
31092;BME280;67728;53.122;12.776;2023-05-10T04:08:27;100265.03;;;8.98;65.54
31092;BME280;67728;53.122;12.776;2023-05-10T04:10:00;100258.22;;;8.94;66.14
31092;BME280;67728;53.122;12.776;2023-05-10T04:11:31;100259.75;;;9.06;65.30
31092;BME280;67728;53.122;12.776;2023-05-10T04:13:03;100264.09;;;9.03;65.32
31092;BME280;67728;53.122;12.776;2023-05-10T04:14:34;100264.69;;;9.19;64.58
31092;BME280;67728;53.122;12.776;2023-05-10T04:16:06;100257.91;;;9.14;65.12
31092;BME280;67728;53.122;12.776;2023-05-10T04:17:38;100262.16;;;9.16;64.98
31092;BME280;67728;53.122;12.776;2023-05-10T04:19:09;100252.66;;;9.17;65.40
31092;BME280;67728;53.122;12.776;2023-05-10T04:20:41;100257.03;;;9.12;65.22
31092;BME280;67728;53.122;12.776;2023-05-10T04:22:13;100252.59;;;9.20;64.31
31092;BME280;67728;53.122;12.776;2023-05-10T04:23:44;100244.69;;;9.27;64.32
31092;BME280;67728;53.122;12.776;2023-05-10T04:25:16;100247.31;;;9.26;64.42
31092;BME280;67728;53.122;12.776;2023-05-10T04:26:48;100252.41;;;9.32;64.70
31092;BME280;67728;53.122;12.776;2023-05-10T04:28:20;100255.81;;;9.34;64.40
31092;BME280;67728;53.122;12.776;2023-05-10T04:29:52;100258.34;;;9.35;64.33
31092;BME280;67728;53.122;12.776;2023-05-10T04:31:22;100258.31;;;9.38;64.88
31092;BME280;67728;53.122;12.776;2023-05-10T04:32:54;100259.00;;;9.46;64.43
31092;BME280;67728;53.122;12.776;2023-05-10T04:34:26;100257.44;;;9.39;64.85
31092;BME280;67728;53.122;12.776;2023-05-10T04:35:58;100259.06;;;9.45;64.80
31092;BME280;67728;53.122;12.776;2023-05-10T04:37:29;100263.38;;;9.44;65.24
31092;BME280;67728;53.122;12.776;2023-05-10T04:39:01;100259.88;;;9.48;64.30
31092;BME280;67728;53.122;12.776;2023-05-10T04:40:35;100258.09;;;9.50;63.80
31092;BME280;67728;53.122;12.776;2023-05-10T04:42:07;100255.34;;;9.59;64.49
31092;BME280;67728;53.122;12.776;2023-05-10T04:43:39;100264.91;;;9.56;64.38
31092;BME280;67728;53.122;12.776;2023-05-10T04:45:11;100256.13;;;9.63;64.28
31092;BME280;67728;53.122;12.776;2023-05-10T04:46:42;100252.63;;;9.66;64.11
31092;BME280;67728;53.122;12.776;2023-05-10T04:48:13;100253.47;;;9.68;64.10
31092;BME280;67728;53.122;12.776;2023-05-10T04:49:44;100249.06;;;9.71;63.66
31092;BME280;67728;53.122;12.776;2023-05-10T04:51:16;100248.84;;;9.82;63.10
31092;BME280;67728;53.122;12.776;2023-05-10T04:52:48;100250.63;;;9.80;63.66
31092;BME280;67728;53.122;12.776;2023-05-10T04:54:19;100251.44;;;9.82;63.66
31092;BME280;67728;53.122;12.776;2023-05-10T04:55:52;100250.56;;;9.83;63.72
31092;BME280;67728;53.122;12.776;2023-05-10T04:57:24;100247.75;;;9.93;63.16
31092;BME280;67728;53.122;12.776;2023-05-10T04:58:55;100249.31;;;10.00;63.38
31092;BME280;67728;53.122;12.776;2023-05-10T05:00:27;100243.25;;;10.03;62.82
31092;BME280;67728;53.122;12.776;2023-05-10T05:01:58;100243.97;;;10.09;63.18
31092;BME280;67728;53.122;12.776;2023-05-10T05:03:30;100239.59;;;10.13;62.95
31092;BME280;67728;53.122;12.776;2023-05-10T05:05:03;100245.50;;;10.19;62.47
31092;BME280;67728;53.122;12.776;2023-05-10T05:06:34;100241.28;;;10.15;63.12
31092;BME280;67728;53.122;12.776;2023-05-10T05:08:06;100252.16;;;10.31;62.10
31092;BME280;67728;53.122;12.776;2023-05-10T05:09:38;100248.66;;;10.34;61.74
31092;BME280;67728;53.122;12.776;2023-05-10T05:11:11;100242.53;;;10.36;61.31
31092;BME280;67728;53.122;12.776;2023-05-10T05:12:42;100249.22;;;10.48;61.60
31092;BME280;67728;53.122;12.776;2023-05-10T05:14:14;100241.28;;;10.54;60.97
31092;BME280;67728;53.122;12.776;2023-05-10T05:15:46;100242.16;;;10.53;61.87
31092;BME280;67728;53.122;12.776;2023-05-10T05:17:17;100250.69;;;10.58;61.99
31092;BME280;67728;53.122;12.776;2023-05-10T05:18:49;100242.84;;;10.61;61.04
31092;BME280;67728;53.122;12.776;2023-05-10T05:20:20;100242.78;;;10.64;60.70
31092;BME280;67728;53.122;12.776;2023-05-10T05:21:52;100241.72;;;10.71;60.94
31092;BME280;67728;53.122;12.776;2023-05-10T05:23:24;100247.72;;;10.74;60.59
31092;BME280;67728;53.122;12.776;2023-05-10T05:24:56;100238.97;;;10.78;60.58
31092;BME280;67728;53.122;12.776;2023-05-10T05:26:30;100239.66;;;10.85;60.52
31092;BME280;67728;53.122;12.776;2023-05-10T05:28:01;100243.06;;;10.89;60.76
31092;BME280;67728;53.122;12.776;2023-05-10T05:29:33;100240.19;;;10.99;60.79
31092;BME280;67728;53.122;12.776;2023-05-10T05:31:06;100231.47;;;11.02;60.50
31092;BME280;67728;53.122;12.776;2023-05-10T05:32:38;100234.94;;;11.02;60.52
31092;BME280;67728;53.122;12.776;2023-05-10T05:34:10;100234.75;;;11.10;60.50
31092;BME280;67728;53.122;12.776;2023-05-10T05:35:42;100227.94;;;11.04;60.39
31092;BME280;67728;53.122;12.776;2023-05-10T05:37:19;100239.78;;;11.16;60.11
31092;BME280;67728;53.122;12.776;2023-05-10T05:38:51;100236.25;;;11.18;60.08
31092;BME280;67728;53.122;12.776;2023-05-10T05:40:23;100236.97;;;11.23;59.35
31092;BME280;67728;53.122;12.776;2023-05-10T05:41:56;100236.94;;;11.25;60.07
31092;BME280;67728;53.122;12.776;2023-05-10T05:43:28;100233.31;;;11.32;59.67
31092;BME280;67728;53.122;12.776;2023-05-10T05:45:00;100236.66;;;11.35;59.55
31092;BME280;67728;53.122;12.776;2023-05-10T05:46:31;100232.03;;;11.47;59.41
31092;BME280;67728;53.122;12.776;2023-05-10T05:48:04;100231.16;;;11.48;60.12
31092;BME280;67728;53.122;12.776;2023-05-10T05:49:35;100229.25;;;11.54;59.59
31092;BME280;67728;53.122;12.776;2023-05-10T05:51:07;100236.09;;;11.57;59.18
31092;BME280;67728;53.122;12.776;2023-05-10T05:52:39;100235.75;;;11.70;58.70
31092;BME280;67728;53.122;12.776;2023-05-10T05:54:10;100243.34;;;11.78;59.87
31092;BME280;67728;53.122;12.776;2023-05-10T05:55:51;100238.00;;;11.82;59.13
31092;BME280;67728;53.122;12.776;2023-05-10T05:57:23;100235.91;;;11.95;58.41
31092;BME280;67728;53.122;12.776;2023-05-10T05:58:54;100244.53;;;11.95;58.26
31092;BME280;67728;53.122;12.776;2023-05-10T06:00:26;100239.41;;;11.94;58.45
31092;BME280;67728;53.122;12.776;2023-05-10T06:01:58;100240.22;;;11.96;56.44
31092;BME280;67728;53.122;12.776;2023-05-10T06:03:30;100241.78;;;12.02;58.27
31092;BME280;67728;53.122;12.776;2023-05-10T06:05:03;100242.66;;;12.00;57.46
31092;BME280;67728;53.122;12.776;2023-05-10T06:06:34;100238.06;;;12.10;57.74
31092;BME280;67728;53.122;12.776;2023-05-10T06:08:06;100240.59;;;12.13;56.39
31092;BME280;67728;53.122;12.776;2023-05-10T06:09:38;100240.53;;;12.15;57.35
31092;BME280;67728;53.122;12.776;2023-05-10T06:11:09;100237.75;;;12.21;58.78
31092;BME280;67728;53.122;12.776;2023-05-10T06:12:42;100245.22;;;12.31;57.54
31092;BME280;67728;53.122;12.776;2023-05-10T06:14:14;100251.44;;;12.27;57.44
31092;BME280;67728;53.122;12.776;2023-05-10T06:15:45;100247.13;;;12.26;56.74
31092;BME280;67728;53.122;12.776;2023-05-10T06:17:17;100243.34;;;12.36;56.38
31092;BME280;67728;53.122;12.776;2023-05-10T06:18:48;100236.94;;;12.46;57.23
31092;BME280;67728;53.122;12.776;2023-05-10T06:20:20;100237.09;;;12.42;57.75
31092;BME280;67728;53.122;12.776;2023-05-10T06:21:52;100245.44;;;12.53;57.92
31092;BME280;67728;53.122;12.776;2023-05-10T06:23:23;100243.50;;;12.59;56.46
31092;BME280;67728;53.122;12.776;2023-05-10T06:24:55;100237.47;;;12.57;56.90
31092;BME280;67728;53.122;12.776;2023-05-10T06:26:27;100239.88;;;12.64;56.80
31092;BME280;67728;53.122;12.776;2023-05-10T06:28:00;100238.75;;;12.72;56.20
31092;BME280;67728;53.122;12.776;2023-05-10T06:29:32;100233.19;;;12.83;56.75
31092;BME280;67728;53.122;12.776;2023-05-10T06:31:04;100237.38;;;12.87;55.59
31092;BME280;67728;53.122;12.776;2023-05-10T06:32:35;100245.78;;;12.96;55.68
31092;BME280;67728;53.122;12.776;2023-05-10T06:34:07;100238.84;;;12.95;55.96
31092;BME280;67728;53.122;12.776;2023-05-10T06:35:39;100238.72;;;13.00;56.46
31092;BME280;67728;53.122;12.776;2023-05-10T06:37:10;100228.78;;;13.12;56.07
31092;BME280;67728;53.122;12.776;2023-05-10T06:38:42;100236.06;;;13.01;55.27
31092;BME280;67728;53.122;12.776;2023-05-10T06:40:14;100232.44;;;13.07;55.13
31092;BME280;67728;53.122;12.776;2023-05-10T06:41:45;100229.38;;;13.21;54.63
31092;BME280;67728;53.122;12.776;2023-05-10T06:43:19;100230.13;;;13.24;54.72
31092;BME280;67728;53.122;12.776;2023-05-10T06:44:51;100226.22;;;13.36;54.89
31092;BME280;67728;53.122;12.776;2023-05-10T06:46:22;100229.78;;;13.58;54.61
31092;BME280;67728;53.122;12.776;2023-05-10T06:47:54;100229.50;;;13.65;53.36
31092;BME280;67728;53.122;12.776;2023-05-10T06:49:26;100228.25;;;14.00;54.16
31092;BME280;67728;53.122;12.776;2023-05-10T06:50:57;100228.38;;;13.97;53.82
31092;BME280;67728;53.122;12.776;2023-05-10T06:52:29;100221.41;;;14.19;54.07
31092;BME280;67728;53.122;12.776;2023-05-10T06:54:01;100222.91;;;14.26;53.24
31092;BME280;67728;53.122;12.776;2023-05-10T06:55:33;100225.38;;;14.29;52.33
31092;BME280;67728;53.122;12.776;2023-05-10T06:57:04;100215.66;;;14.56;51.77
31092;BME280;67728;53.122;12.776;2023-05-10T06:58:38;100219.38;;;14.72;51.94
31092;BME280;67728;53.122;12.776;2023-05-10T07:00:10;100216.06;;;14.89;50.79
31092;BME280;67728;53.122;12.776;2023-05-10T07:01:41;100216.84;;;15.11;51.96
31092;BME280;67728;53.122;12.776;2023-05-10T07:03:13;100222.44;;;15.24;51.95
31092;BME280;67728;53.122;12.776;2023-05-10T07:04:47;100218.38;;;14.96;52.92
31092;BME280;67728;53.122;12.776;2023-05-10T07:06:18;100222.03;;;15.13;50.73
31092;BME280;67728;53.122;12.776;2023-05-10T07:07:50;100213.53;;;15.28;50.55
31092;BME280;67728;53.122;12.776;2023-05-10T07:09:21;100221.97;;;15.34;49.73
31092;BME280;67728;53.122;12.776;2023-05-10T07:10:59;100221.66;;;15.42;50.78
31092;BME280;67728;53.122;12.776;2023-05-10T07:12:31;100223.22;;;15.66;51.01
31092;BME280;67728;53.122;12.776;2023-05-10T07:14:04;100207.03;;;15.58;49.28
31092;BME280;67728;53.122;12.776;2023-05-10T07:15:35;100209.78;;;15.35;49.72
31092;BME280;67728;53.122;12.776;2023-05-10T07:17:07;100215.25;;;15.29;50.98
31092;BME280;67728;53.122;12.776;2023-05-10T07:18:39;100212.50;;;15.52;50.58
31092;BME280;67728;53.122;12.776;2023-05-10T07:20:11;100208.59;;;15.62;50.21
31092;BME280;67728;53.122;12.776;2023-05-10T07:21:43;100202.91;;;15.52;49.48
31092;BME280;67728;53.122;12.776;2023-05-10T07:23:15;100212.38;;;15.75;50.05
31092;BME280;67728;53.122;12.776;2023-05-10T07:24:48;100205.09;;;16.00;48.51
31092;BME280;67728;53.122;12.776;2023-05-10T07:26:19;100210.34;;;16.19;49.87
31092;BME280;67728;53.122;12.776;2023-05-10T07:27:51;100208.50;;;16.40;48.96
31092;BME280;67728;53.122;12.776;2023-05-10T07:29:24;100205.75;;;16.24;48.82
31092;BME280;67728;53.122;12.776;2023-05-10T07:30:56;100208.50;;;16.40;47.95
31092;BME280;67728;53.122;12.776;2023-05-10T07:32:28;100203.81;;;16.46;48.06
31092;BME280;67728;53.122;12.776;2023-05-10T07:34:00;100203.53;;;16.34;47.74
31092;BME280;67728;53.122;12.776;2023-05-10T07:35:32;100206.94;;;16.17;47.93
31092;BME280;67728;53.122;12.776;2023-05-10T07:37:04;100203.50;;;16.52;47.24
31092;BME280;67728;53.122;12.776;2023-05-10T07:38:36;100204.91;;;16.78;48.95
31092;BME280;67728;53.122;12.776;2023-05-10T07:40:08;100198.72;;;16.79;47.00
31092;BME280;67728;53.122;12.776;2023-05-10T07:41:40;100198.09;;;16.57;47.61
31092;BME280;67728;53.122;12.776;2023-05-10T07:43:12;100203.03;;;16.63;47.30
31092;BME280;67728;53.122;12.776;2023-05-10T07:44:45;100198.75;;;16.96;48.44
31092;BME280;67728;53.122;12.776;2023-05-10T07:46:17;100203.53;;;17.22;48.12
31092;BME280;67728;53.122;12.776;2023-05-10T07:47:49;100210.56;;;17.22;47.27
31092;BME280;67728;53.122;12.776;2023-05-10T07:49:21;100203.31;;;17.27;46.42
31092;BME280;67728;53.122;12.776;2023-05-10T07:50:54;100202.31;;;17.29;47.26
31092;BME280;67728;53.122;12.776;2023-05-10T07:52:25;100205.53;;;17.17;46.08
31092;BME280;67728;53.122;12.776;2023-05-10T07:53:57;100199.13;;;17.40;46.24
31092;BME280;67728;53.122;12.776;2023-05-10T07:55:29;100201.97;;;17.35;46.90
31092;BME280;67728;53.122;12.776;2023-05-10T07:57:01;100203.22;;;17.46;46.57
31092;BME280;67728;53.122;12.776;2023-05-10T07:58:32;100201.66;;;17.76;46.17
31092;BME280;67728;53.122;12.776;2023-05-10T08:00:07;100208.63;;;17.60;45.02
31092;BME280;67728;53.122;12.776;2023-05-10T08:01:38;100198.47;;;17.54;44.87
31092;BME280;67728;53.122;12.776;2023-05-10T08:03:10;100199.84;;;17.44;46.06
31092;BME280;67728;53.122;12.776;2023-05-10T08:04:42;100206.31;;;17.54;45.79
31092;BME280;67728;53.122;12.776;2023-05-10T08:06:14;100206.22;;;17.72;44.75